Time;durP1;ratioP1;P1;durP2;ratioP2;P2;SDS_P1;SDS_P2;PMS_P1;PMS_P2;Temp;Humidity;BMP_temperature;BMP_pressure;BME280_temperature;BME280_humidity;BME280_pressure;Samples;Min_cycle;Max_cycle;Signal;HPM_P1;HPM_P2
2022/09/25 00:00:41;;;;;;;0.00;0.00;;;;;;;;;;5016569;28;20041;-83
2022/09/25 00:03:08;;;;;;;0.00;0.00;;;;;;;;;;5033297;28;20049;-83
2022/09/25 00:05:38;;;;;;;0.00;0.00;;;;;;;;;;5033226;28;20126;-83
2022/09/25 00:08:04;;;;;;;0.00;0.00;;;;;;;;;;5032892;28;20428;-83
2022/09/25 00:10:30;;;;;;;0.00;0.00;;;;;;;;;;5032996;28;20069;-83
2022/09/25 00:12:56;;;;;;;0.10;0.10;;;;;;;;;;5032754;28;20056;-84
2022/09/25 00:15:22;;;;;;;0.00;0.00;;;;;;;;;;5032237;28;20049;-83
2022/09/25 00:17:48;;;;;;;0.00;0.00;;;;;;;;;;5032777;28;20045;-84
2022/09/25 00:20:22;;;;;;;0.00;0.00;;;;;;;;;;5033143;28;20041;-84
2022/09/25 00:22:49;;;;;;;0.00;0.00;;;;;;;;;;5032721;28;20438;-83
2022/09/25 00:25:16;;;;;;;0.00;0.00;;;;;;;;;;5032629;28;20050;-84
2022/09/25 00:27:44;;;;;;;0.00;0.00;;;;;;;;;;5032442;28;20099;-83
2022/09/25 00:30:11;;;;;;;0.00;0.00;;;;;;;;;;5032542;28;20049;-83
2022/09/25 00:32:38;;;;;;;0.00;0.00;;;;;;;;;;5015780;28;20037;-83
2022/09/25 00:35:04;;;;;;;0.00;0.00;;;;;;;;;;5032741;28;20381;-84
2022/09/25 00:37:32;;;;;;;0.00;0.00;;;;;;;;;;5032553;28;20600;-84
2022/09/25 00:39:58;;;;;;;0.00;0.00;;;;;;;;;;5032687;28;20045;-83
2022/09/25 00:42:24;;;;;;;0.00;0.00;;;;;;;;;;5032431;28;20095;-83
2022/09/25 00:44:56;;;;;;;0.00;0.00;;;;;;;;;;5032247;28;20120;-83
2022/09/25 00:47:41;;;;;;;0.00;0.00;;;;;;;;;;5032129;28;20041;-84
2022/09/25 00:50:26;;;;;;;0.00;0.00;;;;;;;;;;5032223;28;20455;-83
2022/09/25 00:52:54;;;;;;;0.00;0.00;;;;;;;;;;5032198;28;20110;-83
2022/09/25 00:55:21;;;;;;;0.00;0.00;;;;;;;;;;5032058;28;20038;-84
2022/09/25 00:57:50;;;;;;;0.00;0.00;;;;;;;;;;5032346;28;20508;-84
2022/09/25 01:00:16;;;;;;;0.00;0.00;;;;;;;;;;5033564;28;20045;-84
2022/09/25 01:02:43;;;;;;;0.00;0.00;;;;;;;;;;5031937;28;20124;-83
2022/09/25 01:05:13;;;;;;;0.00;0.00;;;;;;;;;;5015821;28;20460;-84
2022/09/25 01:07:44;;;;;;;0.00;0.00;;;;;;;;;;5032282;28;20049;-84
2022/09/25 01:10:10;;;;;;;0.00;0.00;;;;;;;;;;5032208;28;20045;-83
2022/09/25 01:12:39;;;;;;;0.00;0.00;;;;;;;;;;5031600;28;20547;-83
2022/09/25 01:15:06;;;;;;;0.00;0.00;;;;;;;;;;5031581;28;20443;-82
2022/09/25 01:17:38;;;;;;;0.00;0.00;;;;;;;;;;5031596;28;20084;-83
2022/09/25 01:20:37;;;;;;;0.00;0.00;;;;;;;;;;5015242;28;20049;-82
2022/09/25 01:23:19;;;;;;;0.00;0.00;;;;;;;;;;5009764;28;20053;-83
2022/09/25 01:25:57;;;;;;;0.00;0.00;;;;;;;;;;5031708;28;20117;-82
2022/09/25 01:28:42;;;;;;;0.00;0.00;;;;;;;;;;5014477;28;20053;-82
2022/09/25 01:31:14;;;;;;;0.00;0.00;;;;;;;;;;5031619;28;20069;-82
2022/09/25 01:33:43;;;;;;;0.00;0.00;;;;;;;;;;5031401;28;20120;-83
2022/09/25 01:36:21;;;;;;;0.00;0.00;;;;;;;;;;5031793;28;20037;-83
2022/09/25 01:39:02;;;;;;;0.00;0.00;;;;;;;;;;5015022;28;20041;-82
2022/09/25 01:41:40;;;;;;;0.00;0.00;;;;;;;;;;5033073;28;20041;-83
2022/09/25 01:44:09;;;;;;;0.00;0.00;;;;;;;;;;5031179;28;20047;-82
2022/09/25 01:46:40;;;;;;;0.00;0.00;;;;;;;;;;5014961;28;20045;-83
2022/09/25 01:49:12;;;;;;;0.00;0.00;;;;;;;;;;5031527;28;20041;-83
2022/09/25 01:51:40;;;;;;;0.00;0.00;;;;;;;;;;5031402;28;20041;-82
2022/09/25 01:54:14;;;;;;;0.00;0.00;;;;;;;;;;5032717;28;20033;-83
2022/09/25 01:56:50;;;;;;;0.00;0.00;;;;;;;;;;5031279;28;20041;-83
2022/09/25 01:59:21;;;;;;;0.00;0.00;;;;;;;;;;5031575;28;20066;-83
2022/09/25 02:01:48;;;;;;;0.00;0.00;;;;;;;;;;5014850;28;20044;-84
2022/09/25 02:04:24;;;;;;;0.00;0.00;;;;;;;;;;5031038;28;20556;-83
2022/09/25 02:06:51;;;;;;;0.00;0.00;;;;;;;;;;5031398;28;20038;-83
2022/09/25 02:09:27;;;;;;;0.00;0.00;;;;;;;;;;5031159;28;20052;-84
2022/09/25 02:11:55;;;;;;;0.00;0.00;;;;;;;;;;5031154;28;20042;-84
2022/09/25 02:14:30;;;;;;;0.00;0.00;;;;;;;;;;5030739;28;20065;-84
2022/09/25 02:16:58;;;;;;;0.00;0.00;;;;;;;;;;5031272;28;20406;-82
2022/09/25 02:22:18;;;;;;;0.00;0.00;;;;;;;;;;5032677;28;20050;-83
2022/09/25 02:24:53;;;;;;;0.00;0.00;;;;;;;;;;5031163;28;20051;-83
2022/09/25 02:27:19;;;;;;;0.00;0.00;;;;;;;;;;5014914;28;20060;-83
2022/09/25 02:29:45;;;;;;;0.00;0.00;;;;;;;;;;5030695;28;20050;-83
2022/09/25 02:32:16;;;;;;;0.00;0.00;;;;;;;;;;5014550;28;20397;-83
2022/09/25 02:34:45;;;;;;;0.00;0.00;;;;;;;;;;5030808;28;20403;-83
2022/09/25 02:37:15;;;;;;;0.00;0.00;;;;;;;;;;5031019;28;20091;-83
2022/09/25 02:39:44;;;;;;;0.00;0.00;;;;;;;;;;5016772;28;20037;-85
2022/09/25 02:42:19;;;;;;;0.00;0.00;;;;;;;;;;5034751;28;20049;-85
2022/09/25 02:44:45;;;;;;;0.00;0.00;;;;;;;;;;5034549;28;20041;-84
2022/09/25 02:47:21;;;;;;;0.00;0.00;;;;;;;;;;5034555;28;20436;-83
2022/09/25 02:49:47;;;;;;;;;;;;;;;;;;5034778;28;20507;-84
2022/09/25 02:52:22;;;;;;;0.00;0.00;;;;;;;;;;5034493;28;19917;-84
2022/09/25 02:54:55;;;;;;;0.00;0.00;;;;;;;;;;5034319;28;20049;-84
2022/09/25 02:57:31;;;;;;;0.00;0.00;;;;;;;;;;5034654;28;20377;-83
2022/09/25 02:59:59;;;;;;;0.00;0.00;;;;;;;;;;5034194;28;20449;-83
2022/09/25 03:02:27;;;;;;;0.00;0.00;;;;;;;;;;5034335;28;20065;-83
2022/09/25 03:04:53;;;;;;;0.00;0.00;;;;;;;;;;5033973;28;20037;-83
2022/09/25 03:07:19;;;;;;;0.00;0.00;;;;;;;;;;5034225;28;20477;-84
2022/09/25 03:09:47;;;;;;;0.00;0.00;;;;;;;;;;5033950;28;20049;-85
2022/09/25 03:12:13;;;;;;;0.00;0.00;;;;;;;;;;5034059;28;20072;-83
2022/09/25 03:14:39;;;;;;;0.00;0.00;;;;;;;;;;5033589;28;20152;-83
2022/09/25 03:17:06;;;;;;;0.00;0.00;;;;;;;;;;5034100;28;20373;-83
2022/09/25 03:19:33;;;;;;;0.00;0.00;;;;;;;;;;5034205;28;20045;-83
2022/09/25 03:21:59;;;;;;;0.00;0.00;;;;;;;;;;5033903;28;20481;-82
2022/09/25 03:24:25;;;;;;;0.00;0.00;;;;;;;;;;5033929;28;20492;-83
2022/09/25 03:26:52;;;;;;;0.00;0.00;;;;;;;;;;5033752;28;20045;-83
2022/09/25 03:29:20;;;;;;;0.00;0.00;;;;;;;;;;5034010;28;20063;-83
2022/09/25 03:31:46;;;;;;;0.00;0.00;;;;;;;;;;5033728;28;20041;-83
2022/09/25 03:34:16;;;;;;;0.00;0.00;;;;;;;;;;5033330;28;20037;-83
2022/09/25 03:36:48;;;;;;;0.00;0.00;;;;;;;;;;5033508;28;20489;-83
2022/09/25 03:39:16;;;;;;;0.00;0.00;;;;;;;;;;5033517;28;20554;-83
2022/09/25 03:41:42;;;;;;;0.00;0.00;;;;;;;;;;5033508;28;20042;-83
2022/09/25 03:44:08;;;;;;;0.00;0.00;;;;;;;;;;5016645;28;20041;-83
2022/09/25 03:46:35;;;;;;;0.00;0.00;;;;;;;;;;5033407;28;20049;-82
2022/09/25 03:49:01;;;;;;;0.00;0.00;;;;;;;;;;5033146;28;20413;-82
2022/09/25 03:51:28;;;;;;;0.15;0.00;;;;;;;;;;5032334;28;20073;-83
2022/09/25 03:53:54;;;;;;;0.00;0.00;;;;;;;;;;5033095;28;20042;-87
2022/09/25 03:56:23;;;;;;;0.00;0.00;;;;;;;;;;5035690;28;20045;-84
2022/09/25 03:58:49;;;;;;;0.00;0.00;;;;;;;;;;5017026;28;20190;-84
2022/09/25 04:01:18;;;;;;;0.00;0.00;;;;;;;;;;5034332;28;20077;-84
2022/09/25 04:03:45;;;;;;;0.00;0.00;;;;;;;;;;5016545;28;20120;-84
2022/09/25 04:06:12;;;;;;;0.00;0.00;;;;;;;;;;5033221;28;20520;-84
2022/09/25 04:08:38;;;;;;;0.00;0.00;;;;;;;;;;5033104;28;20037;-84
2022/09/25 04:11:04;;;;;;;0.00;0.00;;;;;;;;;;5032822;28;20389;-84
2022/09/25 04:13:32;;;;;;;0.00;0.00;;;;;;;;;;5032703;28;20041;-84
2022/09/25 04:15:59;;;;;;;0.00;0.00;;;;;;;;;;5032678;28;20044;-84
2022/09/25 04:18:27;;;;;;;0.00;0.00;;;;;;;;;;5032897;28;20209;-84
2022/09/25 04:20:53;;;;;;;0.00;0.00;;;;;;;;;;5032672;28;20552;-84
2022/09/25 04:23:19;;;;;;;0.00;0.00;;;;;;;;;;5032757;28;20354;-84
2022/09/25 04:25:45;;;;;;;0.00;0.00;;;;;;;;;;5032419;28;20084;-84
2022/09/25 04:28:11;;;;;;;0.00;0.00;;;;;;;;;;5032801;28;20041;-84
2022/09/25 04:30:37;;;;;;;0.00;0.00;;;;;;;;;;5015875;28;20041;-84
2022/09/25 04:35:48;;;;;;;0.00;0.00;;;;;;;;;;5032262;28;20128;-84
2022/09/25 04:38:14;;;;;;;0.00;0.00;;;;;;;;;;5032715;28;20084;-84
2022/09/25 04:40:40;;;;;;;0.00;0.00;;;;;;;;;;5032251;28;20458;-84
2022/09/25 04:43:06;;;;;;;0.00;0.00;;;;;;;;;;5032354;28;20041;-84
2022/09/25 04:45:33;;;;;;;0.00;0.00;;;;;;;;;;5033564;28;20098;-84
2022/09/25 04:48:00;;;;;;;0.00;0.00;;;;;;;;;;5032563;28;20038;-84
2022/09/25 04:50:27;;;;;;;0.00;0.00;;;;;;;;;;5032043;28;20049;-84
2022/09/25 04:52:53;;;;;;;0.00;0.00;;;;;;;;;;5032556;28;20037;-84
2022/09/25 04:55:23;;;;;;;0.00;0.00;;;;;;;;;;5033354;28;20033;-83
2022/09/25 04:57:53;;;;;;;0.00;0.00;;;;;;;;;;5032123;28;20425;-84
2022/09/25 05:00:20;;;;;;;0.00;0.00;;;;;;;;;;5031848;28;20516;-83
2022/09/25 05:02:46;;;;;;;0.00;0.00;;;;;;;;;;5031926;28;20133;-83
2022/09/25 05:05:13;;;;;;;0.00;0.00;;;;;;;;;;5033170;28;20041;-83
2022/09/25 05:07:39;;;;;;;0.00;0.00;;;;;;;;;;5015516;28;20424;-83
2022/09/25 05:10:08;;;;;;;0.00;0.00;;;;;;;;;;5031800;28;20055;-84
2022/09/25 05:12:35;;;;;;;0.00;0.00;;;;;;;;;;5015556;28;20485;-83
2022/09/25 05:15:01;;;;;;;0.00;0.00;;;;;;;;;;5015219;28;20049;-83
2022/09/25 05:17:27;;;;;;;0.00;0.00;;;;;;;;;;5031964;28;20079;-83
2022/09/25 05:19:53;;;;;;;0.00;0.00;;;;;;;;;;5031788;28;20037;-83
2022/09/25 05:22:19;;;;;;;0.00;0.00;;;;;;;;;;5031667;28;20099;-83
2022/09/25 05:24:45;;;;;;;0.00;0.00;;;;;;;;;;5031257;28;20546;-83
2022/09/25 05:27:13;;;;;;;0.00;0.00;;;;;;;;;;5015435;28;20041;-83
2022/09/25 05:29:39;;;;;;;0.00;0.00;;;;;;;;;;5031700;28;20042;-83
2022/09/25 05:32:06;;;;;;;0.00;0.00;;;;;;;;;;5014872;28;20037;-83
2022/09/25 05:34:32;;;;;;;0.00;0.00;;;;;;;;;;5031498;28;20041;-84
2022/09/25 05:36:58;;;;;;;0.00;0.00;;;;;;;;;;5031470;28;20041;-84
2022/09/25 05:39:24;;;;;;;0.00;0.00;;;;;;;;;;5031461;28;20042;-83
2022/09/25 05:41:50;;;;;;;0.00;0.00;;;;;;;;;;5031231;28;20095;-83
2022/09/25 05:44:16;;;;;;;0.00;0.00;;;;;;;;;;5031343;28;20121;-83
2022/09/25 05:46:41;;;;;;;0.00;0.00;;;;;;;;;;5031605;28;20213;-84
2022/09/25 05:49:07;;;;;;;0.00;0.00;;;;;;;;;;5031616;28;20096;-83
2022/09/25 05:51:33;;;;;;;0.00;0.00;;;;;;;;;;5014654;28;20148;-84
2022/09/25 05:53:59;;;;;;;0.00;0.00;;;;;;;;;;5032474;28;20109;-83
2022/09/25 05:56:26;;;;;;;0.00;0.00;;;;;;;;;;5031198;28;20492;-83
2022/09/25 05:58:53;;;;;;;0.00;0.00;;;;;;;;;;5031343;28;20446;-83
2022/09/25 06:01:19;;;;;;;0.00;0.00;;;;;;;;;;5031245;28;20076;-82
2022/09/25 06:03:45;;;;;;;0.00;0.00;;;;;;;;;;5031144;28;20041;-83
2022/09/25 06:06:11;;;;;;;0.00;0.00;;;;;;;;;;5032413;28;20033;-83
2022/09/25 06:08:38;;;;;;;0.00;0.00;;;;;;;;;;5031504;28;20472;-82
2022/09/25 06:11:05;;;;;;;0.00;0.00;;;;;;;;;;5031347;28;20041;-82
2022/09/25 06:13:33;;;;;;;0.00;0.00;;;;;;;;;;5031644;28;20120;-83
2022/09/25 06:15:59;;;;;;;0.00;0.00;;;;;;;;;;5018615;28;20099;-83
2022/09/25 06:18:25;;;;;;;0.00;0.00;;;;;;;;;;5035180;28;20500;-83
2022/09/25 06:20:52;;;;;;;0.00;0.00;;;;;;;;;;5018275;28;20041;-84
2022/09/25 06:23:18;;;;;;;0.00;0.00;;;;;;;;;;5018552;28;20064;-83
2022/09/25 06:25:44;;;;;;;0.00;0.00;;;;;;;;;;5034869;28;20083;-83
2022/09/25 06:28:13;;;;;;;0.00;0.00;;;;;;;;;;5035136;28;20116;-83
2022/09/25 06:30:47;;;;;;;0.00;0.00;;;;;;;;;;5034712;28;20045;-84
2022/09/25 06:33:13;;;;;;;0.00;0.00;;;;;;;;;;5018657;28;20041;-85
2022/09/25 06:35:43;;;;;;;0.00;0.00;;;;;;;;;;5034852;28;20101;-85
2022/09/25 06:38:10;;;;;;;0.00;0.00;;;;;;;;;;5034685;28;20056;-84
2022/09/25 06:40:39;;;;;;;0.00;0.00;;;;;;;;;;5034839;28;20041;-84
2022/09/25 06:43:05;;;;;;;0.00;0.00;;;;;;;;;;5034698;28;20511;-84
2022/09/25 06:45:32;;;;;;;0.00;0.00;;;;;;;;;;5034277;28;20078;-84
2022/09/25 06:48:02;;;;;;;0.00;0.00;;;;;;;;;;5034536;28;20069;-84
2022/09/25 06:50:31;;;;;;;0.00;0.00;;;;;;;;;;5034688;28;20528;-86
2022/09/25 06:53:01;;;;;;;0.00;0.00;;;;;;;;;;5018096;28;20042;-86
2022/09/25 06:55:28;;;;;;;0.00;0.00;;;;;;;;;;5034654;28;20068;-85
2022/09/25 06:57:54;;;;;;;0.00;0.00;;;;;;;;;;5034502;28;20050;-85
2022/09/25 07:00:20;;;;;;;0.00;0.00;;;;;;;;;;5034384;28;20049;-85
2022/09/25 07:05:34;;;;;;;0.00;0.00;;;;;;;;;;5034196;28;20485;-84
2022/09/25 07:08:00;;;;;;;0.00;0.00;;;;;;;;;;5034068;28;20045;-84
2022/09/25 07:10:28;;;;;;;0.00;0.00;;;;;;;;;;5034053;28;20049;-85
2022/09/25 07:12:53;;;;;;;0.00;0.00;;;;;;;;;;5017535;28;20158;-85
2022/09/25 07:15:20;;;;;;;0.00;0.00;;;;;;;;;;5036711;28;20132;-85
2022/09/25 07:17:46;;;;;;;0.00;0.00;;;;;;;;;;5033910;28;20080;-84
2022/09/25 07:20:15;;;;;;;0.00;0.00;;;;;;;;;;5034186;28;20037;-85
2022/09/25 07:22:42;;;;;;;0.00;0.00;;;;;;;;;;5033924;28;20175;-87
2022/09/25 07:25:09;;;;;;;0.00;0.00;;;;;;;;;;5016270;28;20069;-85
2022/09/25 07:27:36;;;;;;;0.00;0.00;;;;;;;;;;5017167;28;20080;-85
2022/09/25 07:30:03;;;;;;;0.00;0.00;;;;;;;;;;5033766;28;20045;-85
2022/09/25 07:32:30;;;;;;;0.00;0.00;;;;;;;;;;5017181;28;20123;-84
2022/09/25 07:34:58;;;;;;;0.00;0.00;;;;;;;;;;5017326;28;20045;-85
2022/09/25 07:37:24;;;;;;;0.00;0.00;;;;;;;;;;5033773;28;20459;-84
2022/09/25 07:39:50;;;;;;;0.00;0.00;;;;;;;;;;5033725;28;20069;-83
2022/09/25 07:42:16;;;;;;;0.00;0.00;;;;;;;;;;5033506;28;20049;-84
2022/09/25 07:44:43;;;;;;;0.00;0.00;;;;;;;;;;5033324;28;20083;-85
2022/09/25 07:47:13;;;;;;;0.00;0.00;;;;;;;;;;5033308;28;20120;-83
2022/09/25 07:49:40;;;;;;;0.00;0.00;;;;;;;;;;5033486;28;20049;-83
2022/09/25 07:52:06;;;;;;;0.00;0.00;;;;;;;;;;5033038;28;20041;-83
2022/09/25 07:54:33;;;;;;;0.00;0.00;;;;;;;;;;5033372;28;20052;-84
2022/09/25 07:56:59;;;;;;;0.00;0.00;;;;;;;;;;5016298;28;20401;-87
2022/09/25 07:59:28;;;;;;;0.00;0.00;;;;;;;;;;5033454;28;20043;-87
2022/09/25 08:01:56;;;;;;;0.00;0.00;;;;;;;;;;5033470;28;20137;-87
2022/09/25 08:04:22;;;;;;;0.00;0.00;;;;;;;;;;5033272;28;20052;-87
2022/09/25 08:06:48;;;;;;;0.00;0.00;;;;;;;;;;5033407;28;20176;-88
2022/09/25 08:09:14;;;;;;;0.00;0.00;;;;;;;;;;5016904;28;20045;-88
2022/09/25 08:11:40;;;;;;;0.00;0.00;;;;;;;;;;5033115;28;20080;-88
2022/09/25 08:14:06;;;;;;;0.00;0.00;;;;;;;;;;5016975;28;20056;-87
2022/09/25 08:16:32;;;;;;;0.00;0.00;;;;;;;;;;5033265;28;20046;-87
2022/09/25 08:18:59;;;;;;;0.00;0.00;;;;;;;;;;5016609;28;20095;-88
2022/09/25 08:21:25;;;;;;;0.00;0.00;;;;;;;;;;5033155;28;20515;-86
2022/09/25 08:23:52;;;;;;;0.00;0.00;;;;;;;;;;5033074;28;20046;-87
2022/09/25 08:26:20;;;;;;;0.00;0.00;;;;;;;;;;5034173;28;20124;-93
2022/09/25 08:28:46;;;;;;;0.00;0.00;;;;;;;;;;5034422;28;20076;-88
2022/09/25 08:31:13;;;;;;;0.00;0.00;;;;;;;;;;5016753;28;20473;-87
2022/09/25 08:33:43;;;;;;;0.00;0.00;;;;;;;;;;5032834;28;20080;-87
2022/09/25 08:36:09;;;;;;;0.00;0.00;;;;;;;;;;5038595;28;20361;-87
2022/09/25 08:38:35;;;;;;;0.00;0.00;;;;;;;;;;5040242;28;20049;-87
2022/09/25 08:41:04;;;;;;;0.00;0.00;;;;;;;;;;5032815;28;20045;-88
2022/09/25 08:43:31;;;;;;;0.00;0.00;;;;;;;;;;5032663;28;20056;-87
2022/09/25 08:49:02;;;;;;;0.00;0.00;;;;;;;;;;5032493;28;20045;-92
2022/09/25 08:51:32;;;;;;;0.00;0.00;;;;;;;;;;5015827;28;20229;-84
2022/09/25 08:53:59;;;;;;;0.00;0.00;;;;;;;;;;5015502;28;20041;-85
2022/09/25 08:56:27;;;;;;;0.00;0.00;;;;;;;;;;5032052;28;20033;-85
2022/09/25 08:59:10;;;;;;;0.00;0.00;;;;;;;;;;5031934;28;20045;-85
2022/09/25 09:02:05;;;;;;;0.00;0.00;;;;;;;;;;5032020;28;20064;-86
2022/09/25 09:04:32;;;;;;;0.00;0.00;;;;;;;;;;5007188;28;20064;-85
2022/09/25 09:07:08;;;;;;;0.00;0.00;;;;;;;;;;5031874;28;20445;-86
2022/09/25 09:09:38;;;;;;;0.00;0.00;;;;;;;;;;5031945;28;20053;-85
2022/09/25 09:12:13;;;;;;;0.00;0.00;;;;;;;;;;5031662;28;20140;-86
2022/09/25 09:14:47;;;;;;;0.00;0.00;;;;;;;;;;5031720;28;20425;-86
2022/09/25 09:17:23;;;;;;;0.00;0.00;;;;;;;;;;5031726;28;20113;-86
2022/09/25 09:19:59;;;;;;;0.00;0.00;;;;;;;;;;5031997;28;20393;-87
2022/09/25 09:22:28;;;;;;;0.00;0.00;;;;;;;;;;5015071;28;20037;-88
2022/09/25 09:25:00;;;;;;;0.00;0.00;;;;;;;;;;5031780;28;20067;-86
2022/09/25 09:27:31;;;;;;;0.00;0.00;;;;;;;;;;5015127;28;20049;-86
2022/09/25 09:30:16;;;;;;;0.00;0.00;;;;;;;;;;5031696;28;20045;-86
2022/09/25 09:33:00;;;;;;;0.00;0.00;;;;;;;;;;5014892;28;20401;-88
2022/09/25 09:35:32;;;;;;;0.00;0.00;;;;;;;;;;5031425;28;20037;-85
2022/09/25 09:37:58;;;;;;;0.00;0.00;;;;;;;;;;5015189;28;20493;-86
2022/09/25 09:40:28;;;;;;;0.00;0.00;;;;;;;;;;5031698;28;20045;-87
2022/09/25 09:43:02;;;;;;;0.00;0.00;;;;;;;;;;5031824;28;20045;-87
2022/09/25 09:45:29;;;;;;;0.00;0.00;;;;;;;;;;5015123;28;20488;-86
2022/09/25 09:48:13;;;;;;;0.00;0.00;;;;;;;;;;5031055;28;20087;-87
2022/09/25 09:50:50;;;;;;;0.00;0.00;;;;;;;;;;5031410;28;20038;-86
2022/09/25 09:53:34;;;;;;;0.00;0.00;;;;;;;;;;5031370;28;20072;-87
2022/09/25 09:56:03;;;;;;;0.00;0.00;;;;;;;;;;5031811;28;20077;-86
2022/09/25 09:58:29;;;;;;;0.00;0.00;;;;;;;;;;5031276;28;20042;-86
2022/09/25 10:00:56;;;;;;;0.00;0.00;;;;;;;;;;5031640;28;20042;-86
2022/09/25 10:03:27;;;;;;;0.00;0.00;;;;;;;;;;5031684;28;20470;-85
2022/09/25 10:05:56;;;;;;;0.00;0.00;;;;;;;;;;5015167;28;20050;-84
2022/09/25 10:08:22;;;;;;;0.00;0.00;;;;;;;;;;5014682;28;20037;-86
2022/09/25 10:10:57;;;;;;;0.00;0.00;;;;;;;;;;5015114;28;20507;-87
2022/09/25 10:13:27;;;;;;;0.00;0.00;;;;;;;;;;5014680;28;20041;-88
2022/09/25 10:15:57;;;;;;;0.00;0.00;;;;;;;;;;5024111;28;20459;-87
2022/09/25 10:18:27;;;;;;;0.00;0.00;;;;;;;;;;5032859;28;20038;-86
2022/09/25 10:20:53;;;;;;;0.00;0.00;;;;;;;;;;5014752;28;20045;-86
2022/09/25 10:23:31;;;;;;;0.00;0.00;;;;;;;;;;5031372;28;20139;-88
2022/09/25 10:25:57;;;;;;;0.00;0.00;;;;;;;;;;5031425;28;20049;-87
2022/09/25 10:28:28;;;;;;;0.00;0.00;;;;;;;;;;5031525;28;20104;-87
2022/09/25 10:30:54;;;;;;;0.00;0.00;;;;;;;;;;5031410;28;20573;-87
2022/09/25 10:33:25;;;;;;;0.00;0.00;;;;;;;;;;5031182;28;20116;-88
2022/09/25 10:35:53;;;;;;;0.00;0.00;;;;;;;;;;5031674;28;20480;-84
2022/09/25 10:38:28;;;;;;;0.00;0.00;;;;;;;;;;5015188;28;20045;-87
2022/09/25 10:40:59;;;;;;;0.00;0.00;;;;;;;;;;5031522;28;20045;-86
2022/09/25 10:43:25;;;;;;;0.00;0.00;;;;;;;;;;5030952;28;20087;-87
2022/09/25 10:46:14;;;;;;;0.00;0.00;;;;;;;;;;5031337;28;20073;-87
2022/09/25 10:51:26;;;;;;;0.00;0.00;;;;;;;;;;5031109;28;20553;-85
2022/09/25 10:53:53;;;;;;;0.00;0.00;;;;;;;;;;5014641;28;20077;-87
2022/09/25 10:56:28;;;;;;;0.00;0.00;;;;;;;;;;5014443;28;20084;-86
2022/09/25 10:59:00;;;;;;;0.00;0.00;;;;;;;;;;5031073;28;20481;-86
2022/09/25 11:01:45;;;;;;;0.00;0.00;;;;;;;;;;5034914;28;20140;-86
2022/09/25 11:04:21;;;;;;;0.00;0.00;;;;;;;;;;5034286;28;20045;-87
2022/09/25 11:06:51;;;;;;;0.00;0.00;;;;;;;;;;5034169;28;20045;-87
2022/09/25 11:09:18;;;;;;;0.00;0.00;;;;;;;;;;5034754;28;20042;-87
2022/09/25 11:11:46;;;;;;;0.00;0.00;;;;;;;;;;5034161;28;20073;-86
2022/09/25 11:14:31;;;;;;;0.00;0.00;;;;;;;;;;5017237;28;20085;-86
2022/09/25 11:16:58;;;;;;;0.00;0.00;;;;;;;;;;5017635;28;20038;-86
2022/09/25 11:19:29;;;;;;;0.00;0.00;;;;;;;;;;5033495;28;20044;-87
2022/09/25 11:22:10;;;;;;;0.00;0.00;;;;;;;;;;5038125;28;20176;-86
2022/09/25 11:25:12;;;;;;;0.00;0.00;;;;;;;;;;5053669;28;20037;-86
2022/09/25 11:27:39;;;;;;;0.00;0.00;;;;;;;;;;4977340;28;20097;-85
2022/09/25 11:30:06;;;;;;;0.00;0.00;;;;;;;;;;5038309;28;20500;-86
2022/09/25 11:32:32;;;;;;;0.00;0.00;;;;;;;;;;5053576;28;20125;-86
2022/09/25 11:35:18;;;;;;;0.00;0.00;;;;;;;;;;5053392;28;20081;-87
2022/09/25 11:38:03;;;;;;;0.00;0.00;;;;;;;;;;5037188;28;20041;-85
2022/09/25 11:43:53;;;;;;;0.00;0.00;;;;;;;;;;5053711;28;20040;-83
2022/09/25 11:46:28;;;;;;;0.00;0.00;;;;;;;;;;4984995;28;20050;-81
2022/09/25 11:49:14;;;;;;;0.00;0.00;;;;;;;;;;5053386;28;20056;-80
2022/09/25 11:52:10;;;;;;;0.00;0.00;;;;;;;;;;5036898;28;20041;-81
2022/09/25 11:54:54;;;;;;;0.00;0.00;;;;;;;;;;4984454;28;20073;-81
2022/09/25 11:57:39;;;;;;;0.00;0.00;;;;;;;;;;5053245;28;20514;-81
2022/09/25 12:00:11;;;;;;;0.00;0.00;;;;;;;;;;5053115;28;20484;-81
2022/09/25 12:02:59;;;;;;;0.00;0.00;;;;;;;;;;5053293;28;20045;-81
2022/09/25 12:05:45;;;;;;;0.00;0.00;;;;;;;;;;5036499;28;20043;-87
2022/09/25 12:08:11;;;;;;;0.00;0.00;;;;;;;;;;5053817;28;20107;-83
2022/09/25 12:10:42;;;;;;;0.00;0.00;;;;;;;;;;5052818;28;20045;-82
2022/09/25 12:13:26;;;;;;;0.00;0.00;;;;;;;;;;5052253;28;20079;-83
2022/09/25 12:16:05;;;;;;;0.00;0.00;;;;;;;;;;5036172;28;20044;-80
2022/09/25 12:18:48;;;;;;;0.00;0.00;;;;;;;;;;5036225;28;20041;-81
2022/09/25 12:21:20;;;;;;;0.00;0.00;;;;;;;;;;5052802;28;20110;-80
2022/09/25 12:23:57;;;;;;;0.00;0.00;;;;;;;;;;5052632;28;20041;-82
2022/09/25 12:26:27;;;;;;;0.00;0.00;;;;;;;;;;5036486;28;20040;-81
2022/09/25 12:28:52;;;;;;;0.00;0.00;;;;;;;;;;5052704;28;20052;-81
2022/09/25 12:31:25;;;;;;;0.00;0.00;;;;;;;;;;5035887;28;20041;-81
2022/09/25 12:34:01;;;;;;;0.00;0.00;;;;;;;;;;5052531;28;20072;-81
2022/09/25 12:36:35;;;;;;;0.00;0.00;;;;;;;;;;5052755;28;20060;-81
2022/09/25 12:39:24;;;;;;;0.00;0.00;;;;;;;;;;5035666;28;20103;-81
2022/09/25 12:41:55;;;;;;;0.00;0.00;;;;;;;;;;5052489;28;20449;-81
2022/09/25 12:44:39;;;;;;;0.00;0.00;;;;;;;;;;5035429;28;20126;-82
2022/09/25 12:47:10;;;;;;;0.00;0.00;;;;;;;;;;5052454;28;20072;-82
2022/09/25 12:49:38;;;;;;;0.00;0.00;;;;;;;;;;5035841;28;20094;-83
2022/09/25 12:52:10;;;;;;;0.00;0.00;;;;;;;;;;5052385;28;20399;-83
2022/09/25 12:54:37;;;;;;;0.00;0.00;;;;;;;;;;5052462;28;20072;-83
2022/09/25 12:57:09;;;;;;;0.00;0.00;;;;;;;;;;5052124;28;20045;-84
2022/09/25 12:59:39;;;;;;;0.00;0.00;;;;;;;;;;5053366;28;20044;-85
2022/09/25 13:02:24;;;;;;;0.00;0.00;;;;;;;;;;5052096;28;20500;-82
2022/09/25 13:04:56;;;;;;;0.00;0.00;;;;;;;;;;5034996;28;20044;-83
2022/09/25 13:07:26;;;;;;;0.00;0.00;;;;;;;;;;5053118;28;20416;-82
2022/09/25 13:09:53;;;;;;;0.00;0.00;;;;;;;;;;5052088;28;20045;-82
2022/09/25 13:12:35;;;;;;;0.00;0.00;;;;;;;;;;5035178;28;20045;-82
2022/09/25 13:15:07;;;;;;;0.00;0.00;;;;;;;;;;5051397;28;20049;-85
2022/09/25 13:17:34;;;;;;;0.00;0.00;;;;;;;;;;5052009;28;20047;-85
2022/09/25 13:20:19;;;;;;;0.00;0.00;;;;;;;;;;5034787;28;20052;-85
2022/09/25 13:22:45;;;;;;;0.00;0.00;;;;;;;;;;5035000;28;20077;-84
2022/09/25 13:25:15;;;;;;;0.00;0.00;;;;;;;;;;5032859;28;20044;-86
2022/09/25 13:27:44;;;;;;;0.00;0.00;;;;;;;;;;5029523;28;20041;-84
2022/09/25 13:30:20;;;;;;;0.00;0.00;;;;;;;;;;5030314;28;20037;-83
2022/09/25 13:32:50;;;;;;;0.00;0.00;;;;;;;;;;5028936;28;20454;-83
2022/09/25 13:35:17;;;;;;;0.00;0.00;;;;;;;;;;5012709;28;20089;-88
2022/09/25 13:37:43;;;;;;;0.00;0.00;;;;;;;;;;5032393;28;20037;-89
2022/09/25 13:43:24;;;;;;;0.00;0.00;;;;;;;;;;5022659;28;20445;-85
2022/09/25 13:46:09;;;;;;;0.00;0.00;;;;;;;;;;5013757;28;20485;-85
2022/09/25 13:48:36;;;;;;;0.00;0.00;;;;;;;;;;5028493;28;20104;-88
2022/09/25 13:51:17;;;;;;;0.00;0.00;;;;;;;;;;5029623;28;20049;-85
2022/09/25 13:53:58;;;;;;;0.00;0.00;;;;;;;;;;5031388;28;20044;-84
2022/09/25 13:56:44;;;;;;;0.00;0.00;;;;;;;;;;5014728;28;20499;-87
2022/09/25 13:59:16;;;;;;;0.00;0.00;;;;;;;;;;5024452;28;20041;-92
2022/09/25 14:01:52;;;;;;;0.00;0.00;;;;;;;;;;5031758;28;20068;-92
2022/09/25 14:04:27;;;;;;;0.00;0.00;;;;;;;;;;5014589;28;20135;-88
2022/09/25 14:06:57;;;;;;;0.00;0.00;;;;;;;;;;5029485;28;20060;-83
2022/09/25 14:09:28;;;;;;;0.00;0.00;;;;;;;;;;5047370;28;20068;-86
2022/09/25 14:12:03;;;;;;;0.00;0.00;;;;;;;;;;5026876;28;20049;-85
2022/09/25 14:14:35;;;;;;;0.00;0.00;;;;;;;;;;5021899;28;20056;-85
2022/09/25 14:17:03;;;;;;;0.00;0.00;;;;;;;;;;5001704;28;20041;-85
2022/09/25 14:19:31;;;;;;;0.00;0.00;;;;;;;;;;5023429;28;20474;-86
2022/09/25 14:21:58;;;;;;;0.00;0.00;;;;;;;;;;5006365;28;20172;-90
2022/09/25 14:24:28;;;;;;;0.00;0.00;;;;;;;;;;5031697;28;20041;-90
2022/09/25 14:26:54;;;;;;;0.00;0.00;;;;;;;;;;5006940;28;20045;-89
2022/09/25 14:29:29;;;;;;;0.00;0.00;;;;;;;;;;5033372;28;20042;-88
2022/09/25 14:32:00;;;;;;;0.00;0.00;;;;;;;;;;5015706;28;20049;-87
2022/09/25 14:34:42;;;;;;;0.00;0.00;;;;;;;;;;5015022;28;20033;-88
2022/09/25 14:37:17;;;;;;;0.00;0.00;;;;;;;;;;5016782;28;20049;-92
2022/09/25 14:39:46;;;;;;;0.00;0.00;;;;;;;;;;5033071;28;20038;-92
2022/09/25 14:42:24;;;;;;;0.00;0.00;;;;;;;;;;5022917;28;20049;-91
2022/09/25 14:44:54;;;;;;;0.00;0.00;;;;;;;;;;5027044;28;20046;-93
2022/09/25 14:47:20;;;;;;;0.00;0.00;;;;;;;;;;5013775;28;20050;-90
2022/09/25 14:49:50;;;;;;;0.00;0.00;;;;;;;;;;5023181;28;20558;-88
2022/09/25 14:52:22;;;;;;;0.00;0.00;;;;;;;;;;5019159;28;20457;-89
2022/09/25 14:54:50;;;;;;;0.00;0.00;;;;;;;;;;5018886;28;20124;-89
2022/09/25 14:57:18;;;;;;;0.00;0.00;;;;;;;;;;5005128;28;20504;-92
2022/09/25 14:59:45;;;;;;;0.00;0.00;;;;;;;;;;5022822;28;20056;-87
2022/09/25 15:02:17;;;;;;;0.00;0.00;;;;;;;;;;5009751;28;20048;-85
2022/09/25 15:04:44;;;;;;;0.00;0.00;;;;;;;;;;5030381;28;20045;-90
2022/09/25 15:07:19;;;;;;;0.00;0.00;;;;;;;;;;5025247;28;20053;-89
2022/09/25 15:09:47;;;;;;;0.00;0.00;;;;;;;;;;5030568;28;20111;-90
2022/09/25 15:12:18;;;;;;;0.00;0.00;;;;;;;;;;5036081;28;20048;-90
2022/09/25 15:14:56;;;;;;;0.00;0.00;;;;;;;;;;5018055;28;20050;-89
2022/09/25 15:17:23;;;;;;;0.00;0.00;;;;;;;;;;5037747;28;20077;-89
2022/09/25 15:19:49;;;;;;;0.00;0.00;;;;;;;;;;5020814;28;20040;-91
2022/09/25 15:22:19;;;;;;;0.00;0.00;;;;;;;;;;5020266;28;20042;-91